McGrew, Nebraska
Current Conditions -  °F | °C
As of 12:53 AM on Sunday 21 Dec 2014 (Local Time) from KBFF Reporting Station
Clear Clear  
Wind Chill: -2°   Ceiling: Unl
Heat Index: -2°   Visibility: 10mi
Dew Point: -5°   Wind: 0mph
Humidity: 81%   Direction: NA
Pressure: 29.83"   Gusts: NA
Location:  41.75°N, 103.42°W
Report Text: KBFF 210753Z AUTO 00000KT 10SM CLR M02/M05 A2983 RMK AO2 SLP117 T10221050
Loading
Personal Weather Stations






























Interactive Weather Map New forecast layout! Learn more

10-Day Weather Forecast

Advertisements
Track Severe Weather on mobile